createdAt,value
2018-08-07T00:02:09.446Z,100.00
2018-08-07T00:04:36.337Z,100.00
2018-08-07T00:07:03.279Z,100.00
2018-08-07T00:09:30.197Z,100.00
2018-08-07T00:11:57.140Z,100.00
2018-08-07T00:14:24.100Z,100.00
2018-08-07T00:16:51.044Z,100.00
2018-08-07T00:19:18.011Z,100.00
2018-08-07T00:21:44.952Z,100.00
2018-08-07T00:24:11.876Z,100.00
2018-08-07T00:26:38.813Z,100.00
2018-08-07T00:29:05.737Z,100.00
2018-08-07T00:31:32.676Z,100.00
2018-08-07T00:33:59.633Z,100.00
2018-08-07T00:36:26.578Z,100.00
2018-08-07T00:38:53.564Z,100.00
2018-08-07T00:41:20.781Z,100.00
2018-08-07T00:43:47.739Z,100.00
2018-08-07T00:46:14.708Z,100.00
2018-08-07T00:48:41.653Z,100.00
2018-08-07T00:51:08.609Z,100.00
2018-08-07T00:53:35.541Z,100.00
2018-08-07T00:56:02.520Z,100.00
2018-08-07T00:58:29.470Z,100.00
2018-08-07T01:00:56.391Z,100.00
2018-08-07T01:03:23.298Z,100.00
2018-08-07T01:05:50.240Z,100.00
2018-08-07T01:08:17.209Z,100.00
2018-08-07T01:10:44.124Z,100.00
2018-08-07T01:13:11.047Z,100.00
2018-08-07T01:15:37.967Z,100.00
2018-08-07T01:18:05.432Z,100.00
2018-08-07T01:20:32.372Z,100.00
2018-08-07T01:22:59.292Z,100.00
2018-08-07T01:25:26.205Z,100.00
2018-08-07T01:27:53.192Z,100.00
2018-08-07T01:30:22.864Z,100.00
2018-08-07T01:32:50.032Z,100.00
2018-08-07T01:35:16.949Z,100.00
2018-08-07T01:37:43.876Z,100.00
2018-08-07T01:40:11.607Z,100.00
2018-08-07T01:42:38.621Z,100.00
2018-08-07T01:45:06.012Z,100.00
2018-08-07T01:47:33.004Z,100.00
2018-08-07T01:49:59.924Z,100.00
2018-08-07T01:52:26.868Z,100.00
2018-08-07T01:54:53.784Z,100.00
2018-08-07T01:57:20.700Z,100.00
2018-08-07T01:59:47.601Z,100.00
2018-08-07T02:02:14.487Z,100.00
2018-08-07T02:04:41.404Z,100.00
2018-08-07T02:07:08.332Z,100.00
2018-08-07T02:09:35.289Z,100.00
2018-08-07T02:12:02.203Z,100.00
2018-08-07T02:14:29.155Z,100.00
2018-08-07T02:16:56.076Z,100.00
2018-08-07T02:19:23.023Z,100.00
2018-08-07T02:21:49.933Z,100.00
2018-08-07T02:24:16.824Z,100.00
2018-08-07T02:26:43.752Z,100.00
2018-08-07T02:29:10.667Z,100.00
2018-08-07T02:31:37.575Z,100.00
2018-08-07T02:34:04.497Z,100.00
2018-08-07T02:36:31.421Z,100.00
2018-08-07T02:38:58.350Z,100.00
2018-08-07T02:41:25.277Z,100.00
2018-08-07T02:43:52.193Z,100.00
2018-08-07T02:46:19.107Z,100.00
2018-08-07T02:48:46.014Z,100.00
2018-08-07T02:51:12.940Z,100.00
2018-08-07T02:53:39.861Z,100.00
2018-08-07T02:56:06.863Z,100.00
2018-08-07T02:58:33.782Z,100.00
2018-08-07T03:01:00.720Z,100.00
2018-08-07T03:03:27.623Z,100.00
2018-08-07T03:05:54.565Z,100.00
2018-08-07T03:08:21.471Z,100.00
2018-08-07T03:10:48.401Z,100.00
2018-08-07T03:13:15.332Z,100.00
2018-08-07T03:15:42.284Z,100.00
2018-08-07T03:18:09.232Z,100.00
2018-08-07T03:20:36.198Z,100.00
2018-08-07T03:23:03.129Z,100.00
2018-08-07T03:25:30.054Z,100.00
2018-08-07T03:27:56.977Z,100.00
2018-08-07T03:30:23.890Z,100.00
2018-08-07T03:32:50.807Z,100.00
2018-08-07T03:35:17.757Z,100.00
2018-08-07T03:37:44.710Z,100.00
2018-08-07T03:40:13.713Z,100.00
2018-08-07T03:42:40.639Z,100.00
2018-08-07T03:45:09.168Z,100.00
2018-08-07T03:47:36.200Z,100.00
2018-08-07T03:50:03.718Z,100.00
2018-08-07T03:52:30.621Z,100.00
2018-08-07T03:54:57.537Z,100.00
2018-08-07T03:57:24.536Z,100.00
2018-08-07T03:59:51.423Z,100.00
2018-08-07T04:02:18.348Z,100.00
2018-08-07T04:04:45.262Z,100.00
2018-08-07T04:07:12.163Z,100.00
2018-08-07T04:09:39.073Z,100.00
2018-08-07T04:12:05.952Z,100.00
2018-08-07T04:14:32.901Z,100.00
2018-08-07T04:16:59.780Z,100.00
2018-08-07T04:19:27.524Z,100.00
2018-08-07T04:21:55.283Z,100.00
2018-08-07T04:24:22.226Z,100.00
2018-08-07T04:26:49.122Z,100.00
2018-08-07T04:29:16.320Z,100.00
2018-08-07T04:31:43.256Z,100.00
2018-08-07T04:34:10.179Z,100.00
2018-08-07T04:36:37.065Z,100.00
2018-08-07T04:39:07.140Z,100.00
2018-08-07T04:41:34.036Z,100.00
2018-08-07T04:44:00.920Z,100.00
2018-08-07T04:46:27.818Z,100.00
2018-08-07T04:48:54.796Z,100.00
2018-08-07T04:51:21.704Z,100.00
2018-08-07T04:53:48.595Z,100.00
2018-08-07T04:56:15.488Z,100.00
2018-08-07T04:58:42.365Z,100.00
2018-08-07T05:01:09.289Z,100.00
2018-08-07T05:03:36.193Z,100.00
2018-08-07T05:06:03.095Z,100.00
2018-08-07T05:08:29.986Z,100.00
2018-08-07T05:10:56.897Z,100.00
2018-08-07T05:13:24.892Z,100.00
2018-08-07T05:15:51.825Z,100.00
2018-08-07T05:18:18.731Z,100.00
2018-08-07T05:20:45.664Z,100.00
2018-08-07T05:23:12.542Z,100.00
2018-08-07T05:25:39.440Z,100.00
2018-08-07T05:28:06.640Z,100.00
2018-08-07T05:30:33.552Z,100.00
2018-08-07T05:33:00.448Z,100.00
2018-08-07T05:35:27.368Z,100.00
2018-08-07T05:37:54.245Z,100.00
2018-08-07T05:40:21.155Z,100.00
2018-08-07T05:42:48.126Z,100.00
2018-08-07T05:45:15.804Z,100.00
2018-08-07T05:47:42.703Z,100.00
2018-08-07T05:50:12.197Z,100.00
2018-08-07T05:52:39.132Z,97.72
2018-08-07T05:55:06.335Z,97.03
2018-08-07T05:57:33.229Z,95.28
2018-08-07T06:00:00.160Z,92.52
2018-08-07T06:02:27.076Z,90.27
2018-08-07T06:04:53.952Z,85.43
2018-08-07T06:07:20.857Z,84.55
2018-08-07T06:09:47.744Z,87.05
2018-08-07T06:12:14.953Z,83.56
2018-08-07T06:14:41.872Z,75.54
2018-08-07T06:17:08.776Z,78.21
2018-08-07T06:19:35.684Z,78.45
2018-08-07T06:22:02.616Z,74.25
2018-08-07T06:24:29.498Z,69.85
2018-08-07T06:26:56.420Z,72.41
2018-08-07T06:29:23.292Z,70.45
2018-08-07T06:31:50.201Z,68.99
2018-08-07T06:34:17.099Z,68.27
2018-08-07T06:36:43.988Z,66.32
2018-08-07T06:39:10.883Z,65.25
2018-08-07T06:41:38.011Z,63.17
2018-08-07T06:44:05.017Z,62.97
2018-08-07T06:46:31.943Z,60.96
2018-08-07T06:48:58.808Z,61.74
2018-08-07T06:51:25.703Z,58.89
2018-08-07T06:53:52.588Z,58.66
2018-08-07T06:56:19.475Z,59.93
2018-08-07T06:58:46.356Z,61.21
2018-08-07T07:01:13.246Z,55.77
2018-08-07T07:03:40.143Z,55.89
2018-08-07T07:06:07.036Z,55.23
2018-08-07T07:08:33.951Z,52.44
2018-08-07T07:11:00.844Z,53.72
2018-08-07T07:13:27.756Z,50.98
2018-08-07T07:15:54.658Z,51.02
2018-08-07T07:18:21.552Z,51.02
2018-08-07T07:20:48.465Z,49.72
2018-08-07T07:23:15.349Z,50.12
2018-08-07T07:25:42.246Z,46.97
2018-08-07T07:28:09.133Z,49.37
2018-08-07T07:30:36.036Z,47.11
2018-08-07T07:33:02.919Z,45.33
2018-08-07T07:35:29.809Z,44.73
2018-08-07T07:37:56.795Z,45.48
2018-08-07T07:40:23.625Z,44.45
2018-08-07T07:42:50.539Z,43.58
2018-08-07T07:45:18.717Z,43.79
2018-08-07T07:47:45.686Z,44.19
2018-08-07T07:50:14.756Z,43.57
2018-08-07T07:52:42.192Z,43.19
2018-08-07T07:55:10.080Z,43.46
2018-08-07T07:57:37.565Z,38.54
2018-08-07T08:00:06.796Z,39.30
2018-08-07T08:02:33.700Z,38.15
2018-08-07T08:05:00.588Z,39.11
2018-08-07T08:07:27.488Z,37.51
2018-08-07T08:09:54.388Z,37.47
2018-08-07T08:12:21.284Z,36.95
2018-08-07T08:14:48.168Z,36.64
2018-08-07T08:17:15.065Z,36.29
2018-08-07T08:19:41.984Z,37.39
2018-08-07T08:22:08.897Z,37.15
2018-08-07T08:24:35.879Z,37.47
2018-08-07T08:27:02.787Z,37.32
2018-08-07T08:29:29.876Z,36.95
2018-08-07T08:31:56.592Z,34.74
2018-08-07T08:34:23.508Z,34.14
2018-08-07T08:36:50.413Z,35.18
2018-08-07T08:39:17.316Z,34.11
2018-08-07T08:41:44.228Z,33.35
2018-08-07T08:44:11.156Z,32.21
2018-08-07T08:46:38.104Z,32.75
2018-08-07T08:49:05.087Z,32.90
2018-08-07T08:51:31.988Z,31.36
2018-08-07T08:53:58.920Z,32.08
2018-08-07T08:56:25.806Z,33.14
2018-08-07T08:58:52.733Z,30.78
2018-08-07T09:01:19.652Z,32.09
2018-08-07T09:03:46.602Z,32.64
2018-08-07T09:06:13.505Z,31.75
2018-08-07T09:08:40.405Z,31.69
2018-08-07T09:11:07.332Z,30.03
2018-08-07T09:13:34.245Z,30.72
2018-08-07T09:16:01.148Z,30.81
2018-08-07T09:18:28.057Z,29.91
2018-08-07T09:20:54.944Z,29.89
2018-08-07T09:23:21.844Z,29.42
2018-08-07T09:25:48.938Z,30.15
2018-08-07T09:28:15.644Z,28.10
2018-08-07T09:30:42.545Z,29.08
2018-08-07T09:33:09.500Z,28.49
2018-08-07T09:35:36.392Z,27.82
2018-08-07T09:38:03.332Z,28.15
2018-08-07T09:40:30.240Z,28.24
2018-08-07T09:42:57.377Z,27.63
2018-08-07T09:45:31.679Z,29.06
2018-08-07T09:47:59.519Z,28.79
2018-08-07T09:50:26.748Z,26.75
2018-08-07T09:52:53.644Z,27.15
2018-08-07T09:55:20.581Z,27.09
2018-08-07T09:57:47.472Z,27.37
2018-08-07T10:00:23.668Z,27.16
2018-08-07T10:02:53.816Z,26.33
2018-08-07T10:05:27.225Z,26.90
2018-08-07T10:07:55.365Z,26.66
2018-08-07T10:10:23.232Z,25.01
2018-08-07T10:12:50.172Z,26.48
2018-08-07T10:15:18.171Z,25.69
2018-08-07T10:17:46.274Z,25.66
2018-08-07T10:20:14.132Z,25.33
2018-08-07T10:22:42.802Z,25.34
2018-08-07T10:25:12.040Z,25.93
2018-08-07T10:27:40.517Z,25.05
2018-08-07T10:30:10.463Z,24.18
2018-08-07T10:32:37.596Z,25.12
2018-08-07T10:35:05.178Z,24.56
2018-08-07T10:37:32.812Z,24.53
2018-08-07T10:39:59.735Z,23.83
2018-08-07T10:42:26.635Z,23.91
2018-08-07T10:44:53.552Z,24.27
2018-08-07T10:47:20.449Z,24.55
2018-08-07T10:49:47.367Z,23.95
2018-08-07T10:52:14.317Z,23.95
2018-08-07T10:54:41.227Z,23.96
2018-08-07T10:57:08.128Z,23.25
2018-08-07T10:59:36.453Z,23.55
2018-08-07T11:02:03.363Z,23.79
2018-08-07T11:04:30.287Z,23.99
2018-08-07T11:06:57.191Z,23.16
2018-08-07T11:09:24.108Z,23.26
2018-08-07T11:11:51.064Z,23.39
2018-08-07T11:14:17.996Z,22.18
2018-08-07T11:16:44.884Z,22.05
2018-08-07T11:19:11.780Z,22.18
2018-08-07T11:21:38.692Z,22.79
2018-08-07T11:24:05.594Z,21.73
2018-08-07T11:26:32.520Z,22.37
2018-08-07T11:28:59.445Z,23.17
2018-08-07T11:31:26.363Z,21.75
2018-08-07T11:33:53.276Z,21.51
2018-08-07T11:36:20.184Z,22.26
2018-08-07T11:38:47.073Z,22.07
2018-08-07T11:41:14.034Z,21.92
2018-08-07T11:43:40.908Z,21.57
2018-08-07T11:46:07.856Z,21.77
2018-08-07T11:48:34.936Z,21.27
2018-08-07T11:51:01.848Z,22.04
2018-08-07T11:53:28.757Z,20.86
2018-08-07T11:55:55.674Z,20.55
2018-08-07T11:58:22.564Z,19.69
2018-08-07T12:00:49.469Z,19.88
2018-08-07T12:03:16.388Z,20.38
2018-08-07T12:05:43.337Z,19.94
2018-08-07T12:08:10.248Z,19.96
2018-08-07T12:10:37.239Z,20.58
2018-08-07T12:13:04.212Z,20.51
2018-08-07T12:15:31.108Z,20.54
2018-08-07T12:17:57.989Z,20.34
2018-08-07T12:20:24.899Z,20.71
2018-08-07T12:22:51.829Z,20.07
2018-08-07T12:25:19.391Z,20.39
2018-08-07T12:27:46.375Z,19.90
2018-08-07T12:30:17.564Z,19.12
2018-08-07T12:32:44.872Z,20.09
2018-08-07T12:35:11.803Z,19.29
2018-08-07T12:37:39.150Z,19.00
2018-08-07T12:40:09.444Z,19.54
2018-08-07T12:42:36.442Z,19.86
2018-08-07T12:45:04.112Z,19.30
2018-08-07T12:47:31.044Z,19.11
2018-08-07T12:49:57.992Z,19.72
2018-08-07T12:52:25.029Z,19.56
2018-08-07T12:54:51.936Z,19.99
2018-08-07T12:57:18.877Z,20.21
2018-08-07T12:59:45.785Z,20.45
2018-08-07T13:02:12.721Z,20.60
2018-08-07T13:04:39.624Z,20.19
2018-08-07T13:07:06.626Z,19.98
2018-08-07T13:09:33.529Z,20.63
2018-08-07T13:12:00.448Z,20.22
2018-08-07T13:14:27.372Z,20.43
2018-08-07T13:16:54.275Z,20.84
2018-08-07T13:19:21.223Z,21.77
2018-08-07T13:21:48.144Z,21.42
2018-08-07T13:24:15.021Z,21.80
2018-08-07T13:26:42.341Z,19.35
2018-08-07T13:29:09.416Z,18.83
2018-08-07T13:31:36.413Z,18.71
2018-08-07T13:34:03.269Z,18.80
2018-08-07T13:36:30.345Z,18.51
2018-08-07T13:38:57.255Z,18.51
2018-08-07T13:41:24.185Z,18.30
2018-08-07T13:43:51.075Z,17.96
2018-08-07T13:46:18.016Z,17.70
2018-08-07T13:49:17.523Z,17.96
2018-08-07T13:51:44.442Z,17.34
2018-08-07T13:54:11.392Z,18.18
2018-08-07T13:56:38.613Z,16.07
2018-08-07T13:59:05.527Z,15.57
2018-08-07T14:01:32.423Z,15.16
2018-08-07T14:03:59.316Z,16.03
2018-08-07T14:06:26.239Z,16.07
2018-08-07T14:08:53.160Z,16.59
2018-08-07T14:11:20.079Z,16.70
2018-08-07T14:13:47.009Z,17.06
2018-08-07T14:16:13.972Z,17.40
2018-08-07T14:18:40.924Z,17.78
2018-08-07T14:21:07.805Z,18.50
2018-08-07T14:23:34.708Z,17.70
2018-08-07T14:26:01.595Z,18.64
2018-08-07T14:28:28.499Z,18.22
2018-08-07T14:30:55.395Z,18.85
2018-08-07T14:33:22.291Z,18.58
2018-08-07T14:35:49.808Z,18.92
2018-08-07T14:38:16.749Z,19.12
2018-08-07T14:40:43.668Z,18.76
2018-08-07T14:43:10.617Z,18.88
2018-08-07T14:45:37.535Z,19.20
2018-08-07T14:48:05.099Z,18.83
2018-08-07T14:50:32.032Z,19.41
2018-08-07T14:52:58.932Z,19.72
2018-08-07T14:55:25.920Z,18.63
2018-08-07T14:57:53.103Z,19.53
2018-08-07T15:00:21.890Z,19.90
2018-08-07T15:02:48.992Z,19.73
2018-08-07T15:05:15.935Z,20.04
2018-08-07T15:07:43.356Z,19.92
2018-08-07T15:10:13.660Z,20.48
2018-08-07T15:12:40.576Z,20.42
2018-08-07T15:15:11.103Z,20.81
2018-08-07T15:17:38.008Z,20.13
2018-08-07T15:20:05.485Z,21.01
2018-08-07T15:22:32.392Z,20.71
2018-08-07T15:24:59.301Z,20.87
2018-08-07T15:27:26.210Z,21.60
2018-08-07T15:29:53.111Z,20.36
2018-08-07T15:32:20.026Z,20.61
2018-08-07T15:34:46.934Z,20.86
2018-08-07T15:37:13.833Z,20.31
2018-08-07T15:39:40.740Z,21.18
2018-08-07T15:42:08.632Z,20.67
2018-08-07T15:44:35.557Z,20.61
2018-08-07T15:47:02.443Z,20.55
2018-08-07T15:49:29.355Z,21.16
2018-08-07T15:51:56.263Z,21.48
2018-08-07T15:54:23.146Z,21.26
2018-08-07T15:56:50.208Z,21.42
2018-08-07T15:59:16.971Z,21.48
2018-08-07T16:01:43.873Z,21.51
2018-08-07T16:04:11.823Z,20.93
2018-08-07T16:06:38.727Z,22.48
2018-08-07T16:09:07.708Z,21.63
2018-08-07T16:11:34.572Z,22.42
2018-08-07T16:14:01.485Z,22.02
2018-08-07T16:16:28.363Z,21.99
2018-08-07T16:18:55.255Z,22.39
2018-08-07T16:21:22.149Z,22.31
2018-08-07T16:23:49.051Z,22.91
2018-08-07T16:26:15.939Z,22.24
2018-08-07T16:28:42.848Z,22.05
2018-08-07T16:31:09.787Z,22.18
2018-08-07T16:33:36.693Z,21.89
2018-08-07T16:36:03.599Z,22.12
2018-08-07T16:38:30.515Z,22.45
2018-08-07T16:40:57.417Z,22.11
2018-08-07T16:43:24.320Z,21.76
2018-08-07T16:45:51.245Z,21.66
2018-08-07T16:48:18.863Z,21.80
2018-08-07T16:50:45.782Z,22.37
2018-08-07T16:53:12.746Z,22.16
2018-08-07T16:55:39.871Z,22.02
2018-08-07T16:58:06.795Z,22.42
2018-08-07T17:00:33.695Z,22.45
2018-08-07T17:03:00.596Z,22.98
2018-08-07T17:05:27.652Z,22.05
2018-08-07T17:07:54.623Z,23.09
2018-08-07T17:10:23.992Z,22.85
2018-08-07T17:12:51.140Z,24.40
2018-08-07T17:15:18.052Z,22.38
2018-08-07T17:17:45.249Z,23.03
2018-08-07T17:20:13.888Z,23.10
2018-08-07T17:22:41.539Z,23.34
2018-08-07T17:25:10.651Z,23.96
2018-08-07T17:27:37.809Z,23.90
2018-08-07T17:30:08.354Z,24.90
2018-08-07T17:32:35.259Z,24.79
2018-08-07T17:35:02.175Z,25.36
2018-08-07T17:37:29.149Z,24.32
2018-08-07T17:39:56.052Z,24.79
2018-08-07T17:42:22.955Z,25.52
2018-08-07T17:44:49.839Z,26.63
2018-08-07T17:47:16.731Z,25.53
2018-08-07T17:49:43.678Z,25.23
2018-08-07T17:52:10.549Z,25.64
2018-08-07T17:54:37.463Z,25.65
2018-08-07T17:57:04.588Z,27.14
2018-08-07T17:59:31.474Z,26.78
2018-08-07T18:01:58.396Z,27.09
2018-08-07T18:04:25.300Z,26.71
2018-08-07T18:06:52.253Z,29.34
2018-08-07T18:09:19.108Z,28.83
2018-08-07T18:11:46.007Z,28.33
2018-08-07T18:14:12.900Z,28.86
2018-08-07T18:16:39.828Z,29.18
2018-08-07T18:19:06.971Z,29.16
2018-08-07T18:21:33.889Z,30.12
2018-08-07T18:24:00.784Z,30.43
2018-08-07T18:26:27.672Z,29.82
2018-08-07T18:28:54.582Z,30.02
2018-08-07T18:31:21.460Z,30.32
2018-08-07T18:33:48.351Z,31.14
2018-08-07T18:36:15.280Z,31.29
2018-08-07T18:38:42.181Z,32.37
2018-08-07T18:41:09.077Z,32.16
2018-08-07T18:43:35.980Z,32.92
2018-08-07T18:46:02.911Z,33.19
2018-08-07T18:48:30.225Z,33.82
2018-08-07T18:50:57.122Z,34.30
2018-08-07T18:53:24.020Z,34.50
2018-08-07T18:55:50.908Z,34.38
2018-08-07T18:58:17.784Z,35.64
2018-08-07T19:00:44.695Z,35.10
2018-08-07T19:03:11.588Z,35.58
2018-08-07T19:05:38.471Z,35.99
2018-08-07T19:08:05.353Z,37.08
2018-08-07T19:10:32.258Z,36.51
2018-08-07T19:12:59.148Z,36.62
2018-08-07T19:15:26.069Z,38.46
2018-08-07T19:17:52.940Z,39.30
2018-08-07T19:20:21.084Z,40.34
2018-08-07T19:22:48.223Z,41.25
2018-08-07T19:25:16.741Z,41.16
2018-08-07T19:27:43.843Z,42.31
2018-08-07T19:30:12.662Z,41.99
2018-08-07T19:32:40.008Z,43.01
2018-08-07T19:35:07.588Z,43.65
2018-08-07T19:37:34.819Z,43.30
2018-08-07T19:40:02.395Z,41.33
2018-08-07T19:42:29.303Z,40.97
2018-08-07T19:44:56.218Z,42.38
2018-08-07T19:47:23.119Z,42.67
2018-08-07T19:49:50.017Z,44.31
2018-08-07T19:52:16.942Z,43.50
2018-08-07T19:54:43.820Z,43.00
2018-08-07T19:57:10.701Z,42.86
2018-08-07T19:59:37.608Z,43.72
2018-08-07T20:02:04.530Z,45.91
2018-08-07T20:04:31.400Z,45.62
2018-08-07T20:06:58.312Z,47.20
2018-08-07T20:09:25.192Z,47.47
2018-08-07T20:11:52.108Z,47.23
2018-08-07T20:14:19.012Z,48.36
2018-08-07T20:16:45.951Z,47.35
2018-08-07T20:19:12.851Z,47.07
2018-08-07T20:21:39.780Z,45.70
2018-08-07T20:24:06.708Z,45.81
2018-08-07T20:26:33.636Z,45.73
2018-08-07T20:29:00.531Z,45.94
2018-08-07T20:31:27.428Z,46.32
2018-08-07T20:33:54.591Z,46.34
2018-08-07T20:36:21.511Z,46.40
2018-08-07T20:38:48.629Z,47.12
2018-08-07T20:41:15.521Z,46.18
2018-08-07T20:43:42.428Z,47.26
2018-08-07T20:46:09.351Z,47.73
2018-08-07T20:48:36.361Z,47.75
2018-08-07T20:51:04.535Z,47.85
2018-08-07T20:53:31.501Z,48.33
2018-08-07T20:55:59.414Z,49.92
2018-08-07T20:58:26.618Z,49.80
2018-08-07T21:00:54.410Z,49.92
2018-08-07T21:03:21.318Z,49.74
2018-08-07T21:05:48.219Z,50.65
2018-08-07T21:08:15.151Z,51.57
2018-08-07T21:10:42.060Z,51.67
2018-08-07T21:13:09.100Z,52.83
2018-08-07T21:15:35.991Z,52.91
2018-08-07T21:18:02.940Z,53.47
2018-08-07T21:20:29.899Z,53.68
2018-08-07T21:22:56.803Z,53.60
2018-08-07T21:25:23.957Z,54.10
2018-08-07T21:27:57.380Z,54.77
2018-08-07T21:30:26.053Z,55.52
2018-08-07T21:32:52.980Z,55.73
2018-08-07T21:35:19.885Z,55.12
2018-08-07T21:37:46.801Z,55.86
2018-08-07T21:40:16.044Z,56.26
2018-08-07T21:42:43.257Z,56.68
2018-08-07T21:45:10.275Z,56.85
2018-08-07T21:47:37.539Z,57.16
2018-08-07T21:50:08.823Z,57.44
2018-08-07T21:52:37.908Z,58.03
2018-08-07T21:55:06.867Z,57.67
2018-08-07T21:57:34.498Z,57.53
2018-08-07T22:00:02.605Z,57.77
2018-08-07T22:02:29.515Z,58.56
2018-08-07T22:04:57.154Z,58.49
2018-08-07T22:07:24.092Z,59.03
2018-08-07T22:09:51.016Z,58.72
2018-08-07T22:12:17.941Z,58.75
2018-08-07T22:14:44.849Z,59.38
2018-08-07T22:17:13.213Z,59.08
2018-08-07T22:19:40.120Z,59.22
2018-08-07T22:22:08.310Z,59.20
2018-08-07T22:24:35.195Z,58.73
2018-08-07T22:27:02.470Z,58.29
2018-08-07T22:29:29.371Z,58.39
2018-08-07T22:31:56.388Z,58.80
2018-08-07T22:34:23.276Z,58.87
2018-08-07T22:36:50.163Z,58.74
2018-08-07T22:39:17.070Z,60.22
2018-08-07T22:41:43.968Z,60.29
2018-08-07T22:44:10.868Z,59.94
2018-08-07T22:46:37.774Z,61.19
2018-08-07T22:49:05.034Z,61.45
2018-08-07T22:51:31.676Z,59.95
2018-08-07T22:53:58.568Z,60.71
2018-08-07T22:56:25.488Z,60.57
2018-08-07T22:58:52.413Z,61.13
2018-08-07T23:01:19.292Z,60.04
2018-08-07T23:03:46.192Z,60.55
2018-08-07T23:06:13.089Z,59.87
2018-08-07T23:08:39.979Z,60.33
2018-08-07T23:11:06.877Z,60.08
2018-08-07T23:13:33.792Z,60.59
2018-08-07T23:16:00.663Z,60.26
2018-08-07T23:18:27.540Z,60.17
2018-08-07T23:20:54.428Z,60.04
2018-08-07T23:23:21.454Z,60.17
2018-08-07T23:25:48.373Z,60.72
2018-08-07T23:28:15.236Z,61.37
2018-08-07T23:30:42.172Z,60.78
2018-08-07T23:33:09.068Z,61.57
2018-08-07T23:35:35.954Z,61.11
2018-08-07T23:38:02.859Z,60.50
2018-08-07T23:40:29.748Z,60.87
2018-08-07T23:42:56.651Z,60.53
2018-08-07T23:45:23.590Z,61.17
2018-08-07T23:47:50.441Z,60.69
2018-08-07T23:50:17.318Z,61.38
2018-08-07T23:52:44.237Z,60.59
2018-08-07T23:55:11.128Z,60.38
2018-08-07T23:57:38.041Z,60.39
